首页
METAR-TAF:

METAR-TAF

机场 :

Redmond Municipal Airport (Roberts Field)

Redmond, 俄勒冈州, 美国

纬度: 44-15-15N, 经度: 121-08-59W, 海拔: 938米

当前天气观测

该预报发布于47分钟前的01:56 UTC
风速14节,风向西转西北
温度 2°C
湿度 55%
气压 1009 hPa
能見度: 16.1公里
阴天层高于6000英尺

METAR: KRDM 170156Z 30014KT 10SM OVC060 02/M06 A2980 RMK AO2 SLP107 T00171056

时间: 18:43 (02:43 UTC)

预报

该预报发布于2小时和59分钟前的23:44 UTC
预报有效从17日的 00点(UTC)到 17日的 24点(UTC)
风速8节,风向西转西北,有时为17节阵风
能見度: 9.7公里
散云层高于3000英尺
阴天层高于5000英尺
小阵雪
从 17日的 0300点(UTC)
风速6节,风向西
能見度: 9.7公里
散云层高于2500英尺
阴天层高于3500英尺
小阵雪
从 17日的 1800点(UTC)
风速5节,风向
能見度: 10公里
散云层高于4000英尺
多云层高于6000英尺

TAF: KRDM 162344Z 1700/1724 30008G17KT 6SM -SHSN SCT030 OVC050 FM170300 26006KT 6SM -SHSN SCT025 OVC035 FM171800 35005KT P6SM SCT040 BKN060

超过4000个机场的气象观测和天气预报(METAR&TAF报告)。

可查询的气象台以黄色和红色小点在地图上表示。

将鼠标移到小点上方,可查看气象台名称。

然后点击查看天气观测和预报。

如需切换地图:点击带黑十字的绿色按钮放大地图;点击带横线的绿色按钮缩小地图;或者点击绿色箭头查看邻近地区的地图。


METAR-TAF: